Time,TemperatureF,DewpointF,PressureIn,WindDirection,WindDirectionDegrees,WindSpeedMPH,WindSpeedGustMPH,Humidity,HourlyPrecipIn,Conditions,Clouds,dailyrainin,SoftwareType,DateUTC
2013-09-26 00:13:00,61.0,-99.9,-100.00,East,80,11.0,14.0,-999,0.00,,,0.00,,2013-09-26 05:13:00,
2013-09-26 00:23:00,61.0,-99.9,-100.00,East,80,11.0,14.0,-999,0.00,,,0.00,,2013-09-26 05:23:00,
2013-09-26 00:43:00,60.0,-99.9,-100.00,East,82,10.0,13.0,-999,0.00,,,0.00,,2013-09-26 05:43:00,
2013-09-26 00:52:00,60.0,-99.9,-100.00,East,82,10.0,13.0,-999,0.00,,,0.00,,2013-09-26 05:52:00,
2013-09-26 01:13:00,59.0,-99.9,-100.00,East,79,10.0,14.0,-999,0.00,,,0.00,,2013-09-26 06:13:00,
2013-09-26 01:23:00,59.0,-99.9,-100.00,East,79,10.0,14.0,-999,0.00,,,0.00,,2013-09-26 06:23:00,
2013-09-26 01:42:00,59.0,-99.9,-100.00,ENE,78,9.0,11.0,-999,0.00,,,0.00,,2013-09-26 06:42:00,
2013-09-26 01:54:00,59.0,-99.9,-100.00,ENE,78,9.0,11.0,-999,0.00,,,0.00,,2013-09-26 06:54:00,
2013-09-26 02:12:00,58.0,-99.9,-100.00,ENE,75,7.0,9.0,-999,0.00,,,0.00,,2013-09-26 07:12:00,
2013-09-26 02:22:00,58.0,-99.9,-100.00,ENE,75,7.0,9.0,-999,0.00,,,0.00,,2013-09-26 07:22:00,
2013-09-26 02:43:00,57.0,-99.9,-100.00,NE,56,3.0,5.0,-999,0.00,,,0.00,,2013-09-26 07:43:00,
2013-09-26 02:53:00,57.0,-99.9,-100.00,NE,56,3.0,5.0,-999,0.00,,,0.00,,2013-09-26 07:53:00,
2013-09-26 03:12:00,57.0,-99.9,-100.00,NE,39,4.0,5.0,-999,0.00,,,0.00,,2013-09-26 08:12:00,
2013-09-26 03:22:00,57.0,-99.9,-100.00,NE,39,4.0,5.0,-999,0.00,,,0.00,,2013-09-26 08:22:00,
2013-09-26 03:42:00,56.0,-99.9,-100.00,NE,43,4.0,6.0,-999,0.00,,,0.00,,2013-09-26 08:42:00,
2013-09-26 03:52:00,56.0,-99.9,-100.00,NE,43,4.0,6.0,-999,0.00,,,0.00,,2013-09-26 08:52:00,
2013-09-26 04:11:00,56.0,-99.9,-100.00,NNE,33,4.0,6.0,-999,0.00,,,0.00,,2013-09-26 09:11:00,
2013-09-26 04:22:00,56.0,-99.9,-100.00,NNE,33,4.0,6.0,-999,0.00,,,0.00,,2013-09-26 09:22:00,
2013-09-26 04:43:00,56.0,-99.9,-100.00,NE,37,6.0,8.0,-999,0.00,,,0.00,,2013-09-26 09:43:00,
2013-09-26 04:54:00,56.0,-99.9,-100.00,NE,37,6.0,8.0,-999,0.00,,,0.00,,2013-09-26 09:54:00,
2013-09-26 05:12:00,56.0,-99.9,-100.00,NE,43,6.0,8.0,-999,0.00,,,0.00,,2013-09-26 10:12:00,
2013-09-26 05:23:00,56.0,-99.9,-100.00,NE,43,6.0,8.0,-999,0.00,,,0.00,,2013-09-26 10:23:00,
2013-09-26 05:30:00,57.0,-99.9,-100.00,ENE,71,6.0,8.0,-999,0.00,,,0.00,,2013-09-26 10:30:00,
2013-09-26 05:42:00,56.0,-99.9,-100.00,NE,44,5.0,7.0,-999,0.00,,,0.00,,2013-09-26 10:42:00,
2013-09-26 05:53:00,56.0,-99.9,-100.00,NE,44,5.0,7.0,-999,0.00,,,0.00,,2013-09-26 10:53:00,
2013-09-26 06:12:00,57.0,-99.9,-100.00,ENE,71,6.0,8.0,-999,0.00,,,0.00,,2013-09-26 11:12:00,
2013-09-26 06:22:00,57.0,-99.9,-100.00,ENE,71,6.0,8.0,-999,0.00,,,0.00,,2013-09-26 11:22:00,
2013-09-26 07:12:00,56.0,-99.9,-100.00,ENE,71,4.0,8.0,-999,0.00,,,0.00,,2013-09-26 12:12:00,
2013-09-26 07:22:00,56.0,-99.9,-100.00,ENE,71,4.0,8.0,-999,0.00,,,0.00,,2013-09-26 12:22:00,
2013-09-26 07:43:00,56.0,-99.9,-100.00,ENE,71,7.0,9.0,-999,0.00,,,0.00,,2013-09-26 12:43:00,
2013-09-26 07:52:00,56.0,-99.9,-100.00,ENE,71,7.0,9.0,-999,0.00,,,0.00,,2013-09-26 12:52:00,
2013-09-26 08:12:00,56.0,-99.9,-100.00,ENE,73,6.0,8.0,-999,0.00,,,0.00,,2013-09-26 13:12:00,
2013-09-26 08:22:00,56.0,-99.9,-100.00,ENE,73,6.0,8.0,-999,0.00,,,0.00,,2013-09-26 13:22:00,
2013-09-26 08:42:00,57.0,-99.9,-100.00,ENE,77,8.0,10.0,-999,0.00,,,0.00,,2013-09-26 13:42:00,
2013-09-26 08:52:00,57.0,-99.9,-100.00,ENE,77,8.0,10.0,-999,0.00,,,0.00,,2013-09-26 13:52:00,
2013-09-26 09:11:00,57.0,-99.9,-100.00,East,83,9.0,11.0,-999,0.00,,,0.00,,2013-09-26 14:11:00,
2013-09-26 09:22:00,57.0,-99.9,-100.00,East,83,9.0,11.0,-999,0.00,,,0.00,,2013-09-26 14:22:00,
2013-09-26 09:42:00,59.0,-99.9,-100.00,ENE,72,9.0,10.0,-999,0.00,,,0.00,,2013-09-26 14:42:00,
2013-09-26 10:11:00,61.0,-99.9,-100.00,East,81,6.0,7.0,-999,0.00,,,0.00,,2013-09-26 15:11:00,
2013-09-26 10:22:00,61.0,-99.9,-100.00,East,81,6.0,7.0,-999,0.00,,,0.00,,2013-09-26 15:22:00,
2013-09-26 10:44:00,64.0,-99.9,-100.00,East,92,4.0,7.0,-999,0.00,,,0.00,,2013-09-26 15:44:00,
2013-09-26 10:54:00,64.0,-99.9,-100.00,East,92,4.0,7.0,-999,0.00,,,0.00,,2013-09-26 15:54:00,
2013-09-26 11:13:00,66.0,-99.9,-100.00,East,99,6.0,9.0,-999,0.00,,,0.00,,2013-09-26 16:13:00,
2013-09-26 11:24:00,66.0,-99.9,-100.00,East,99,6.0,9.0,-999,0.00,,,0.00,,2013-09-26 16:24:00,
2013-09-26 11:30:00,71.0,-99.9,-100.00,ESE,111,8.0,10.0,-999,0.00,,,0.00,,2013-09-26 16:30:00,
2013-09-26 11:44:00,68.0,-99.9,-100.00,East,95,5.0,6.0,-999,0.00,,,0.00,,2013-09-26 16:44:00,
2013-09-26 11:54:00,68.0,-99.9,-100.00,East,95,5.0,6.0,-999,0.00,,,0.00,,2013-09-26 16:54:00,
2013-09-26 12:12:00,71.0,-99.9,-100.00,ESE,111,8.0,10.0,-999,0.00,,,0.00,,2013-09-26 17:12:00,
2013-09-26 12:23:00,71.0,-99.9,-100.00,ESE,111,8.0,10.0,-999,0.00,,,0.00,,2013-09-26 17:23:00,
2013-09-26 13:14:00,79.0,-99.9,-100.00,ESE,118,8.0,10.0,-999,0.00,,,0.00,,2013-09-26 18:14:00,
2013-09-26 13:22:00,79.0,-99.9,-100.00,ESE,118,8.0,10.0,-999,0.00,,,0.00,,2013-09-26 18:22:00,
2013-09-26 13:43:00,80.0,-99.9,-100.00,East,100,6.0,8.0,-999,0.00,,,0.00,,2013-09-26 18:43:00,
2013-09-26 13:52:00,80.0,-99.9,-100.00,East,100,6.0,8.0,-999,0.00,,,0.00,,2013-09-26 18:52:00,
2013-09-26 14:12:00,79.0,-99.9,-100.00,ESE,114,9.0,12.0,-999,0.00,,,0.00,,2013-09-26 19:12:00,
2013-09-26 14:22:00,79.0,-99.9,-100.00,ESE,114,9.0,12.0,-999,0.00,,,0.00,,2013-09-26 19:22:00,
2013-09-26 14:44:00,79.0,-99.9,-100.00,ESE,123,8.0,13.0,-999,0.00,,,0.00,,2013-09-26 19:44:00,
2013-09-26 14:52:00,79.0,-99.9,-100.00,ESE,123,8.0,13.0,-999,0.00,,,0.00,,2013-09-26 19:52:00,
2013-09-26 15:12:00,80.0,-99.9,-100.00,SE,136,6.0,9.0,-999,0.00,,,0.00,,2013-09-26 20:12:00,
2013-09-26 15:23:00,80.0,-99.9,-100.00,SE,136,6.0,9.0,-999,0.00,,,0.00,,2013-09-26 20:23:00,
2013-09-26 15:43:00,80.0,-99.9,-100.00,ESE,112,9.0,12.0,-999,0.00,,,0.00,,2013-09-26 20:43:00,
2013-09-26 15:53:00,80.0,-99.9,-100.00,ESE,112,9.0,12.0,-999,0.00,,,0.00,,2013-09-26 20:53:00,
2013-09-26 16:12:00,80.0,-99.9,-100.00,SE,129,8.0,11.0,-999,0.00,,,0.00,,2013-09-26 21:12:00,
2013-09-26 16:23:00,80.0,-99.9,-100.00,SE,129,8.0,11.0,-999,0.00,,,0.00,,2013-09-26 21:23:00,
2013-09-26 16:44:00,80.0,-99.9,-100.00,SE,135,6.0,9.0,-999,0.00,,,0.00,,2013-09-26 21:44:00,
2013-09-26 16:54:00,80.0,-99.9,-100.00,SE,135,6.0,9.0,-999,0.00,,,0.00,,2013-09-26 21:54:00,
2013-09-26 17:14:00,80.0,-99.9,-100.00,ESE,120,9.0,13.0,-999,0.00,,,0.00,,2013-09-26 22:14:00,
2013-09-26 17:24:00,80.0,-99.9,-100.00,ESE,120,9.0,13.0,-999,0.00,,,0.00,,2013-09-26 22:24:00,
2013-09-26 17:43:00,80.0,-99.9,-100.00,ESE,123,9.0,13.0,-999,0.00,,,0.00,,2013-09-26 22:43:00,
2013-09-26 17:54:00,80.0,-99.9,-100.00,ESE,123,9.0,13.0,-999,0.00,,,0.00,,2013-09-26 22:54:00,
2013-09-26 18:12:00,80.0,-99.9,-100.00,ESE,117,7.0,9.0,-999,0.00,,,0.00,,2013-09-26 23:12:00,
2013-09-26 18:23:00,80.0,-99.9,-100.00,ESE,117,7.0,9.0,-999,0.00,,,0.00,,2013-09-26 23:23:00,
2013-09-26 18:43:00,78.0,-99.9,-100.00,ESE,103,7.0,7.0,-999,0.00,,,0.00,,2013-09-26 23:43:00,
2013-09-26 18:53:00,78.0,-99.9,-100.00,ESE,103,7.0,7.0,-999,0.00,,,0.00,,2013-09-26 23:53:00,
2013-09-26 19:22:00,76.0,-99.9,-100.00,ESE,106,5.0,6.0,-999,0.00,,,0.00,,2013-09-27 00:22:00,
2013-09-26 19:43:00,73.0,-99.9,-100.00,ESE,114,4.0,5.0,-999,0.00,,,0.00,,2013-09-27 00:43:00,
2013-09-26 20:00:00,72.0,-99.9,-100.00,ESE,104,7.0,8.0,-999,0.00,,,0.00,,2013-09-27 01:00:00,
2013-09-26 20:12:00,72.0,-99.9,-100.00,ESE,103,4.0,5.0,-999,0.00,,,0.00,,2013-09-27 01:12:00,
2013-09-26 20:23:00,72.0,-99.9,-100.00,ESE,103,4.0,5.0,-999,0.00,,,0.00,,2013-09-27 01:23:00,
2013-09-26 20:42:00,72.0,-99.9,-100.00,ESE,104,7.0,8.0,-999,0.00,,,0.00,,2013-09-27 01:42:00,
2013-09-26 20:52:00,72.0,-99.9,-100.00,ESE,104,7.0,8.0,-999,0.00,,,0.00,,2013-09-27 01:52:00,
2013-09-26 21:43:00,71.0,-99.9,-100.00,East,97,7.0,8.0,-999,0.00,,,0.00,,2013-09-27 02:43:00,
2013-09-26 21:53:00,71.0,-99.9,-100.00,East,97,7.0,8.0,-999,0.00,,,0.00,,2013-09-27 02:53:00,
2013-09-26 22:12:00,70.0,-99.9,-100.00,East,98,8.0,10.0,-999,0.00,,,0.00,,2013-09-27 03:12:00,
2013-09-26 22:22:00,70.0,-99.9,-100.00,East,98,8.0,10.0,-999,0.00,,,0.00,,2013-09-27 03:22:00,
2013-09-26 22:45:00,69.0,-99.9,-100.00,East,98,10.0,11.0,-999,0.00,,,0.00,,2013-09-27 03:45:00,
2013-09-26 22:55:00,69.0,-99.9,-100.00,East,98,10.0,11.0,-999,0.00,,,0.00,,2013-09-27 03:55:00,
2013-09-26 23:14:00,68.0,-99.9,-100.00,East,100,8.0,9.0,-999,0.00,,,0.00,,2013-09-27 04:14:00,
2013-09-26 23:24:00,68.0,-99.9,-100.00,East,100,8.0,9.0,-999,0.00,,,0.00,,2013-09-27 04:24:00,
2013-09-26 23:45:00,67.0,-99.9,-100.00,East,93,7.0,8.0,-999,0.00,,,0.00,,2013-09-27 04:45:00,
2013-09-26 23:54:00,67.0,-99.9,-100.00,East,93,7.0,8.0,-999,0.00,,,0.00,,2013-09-27 04:54:00,